METAR AND TAF INFORMATION
METAR FOR OING
ADDS - METARS form results

(1342 UTC 13 July 2020)
Data provider http://aviationweather.gov/metar/data/
 
METAR text: OING 131300Z 11008KT 9999 FEW030 SCT120 33/20 Q1001 NOSIG
Conditions at: OING (GORGAN , IR) observed 1300 UTC 13 July 2020
Temperature: 33.0°C (91°F)
Dewpoint: 20.0°C (68°F) [RH = 46%]
Pressure (altimeter): 29.56 inches Hg (1001.0 mb)
Winds: from the ESE (110 degrees) at 9 MPH (8 knots; 4.1 m/s)
Visibility: 6 or more miles (10+ km)
Ceiling: at least 12,000 feet AGL
Clouds: few clouds at 3000 feet AGL
scattered clouds at 12000 feet AGL
Weather: no significant weather observed at this time

 AIRPORT MAP

 RUNWAY INFORMATION
Runway 14 Runway length 7540 ft Runway width 148 ft
Runway elevation 0 ft Runway displaced threshold 0 ft Runway heading 134
Runway 32 Runway length 7540 ft Runway width 148 ft
Runway elevation 0 ft Runway displaced threshold 0 ft Runway heading 314

 AIRPORT FREQUENCIES
Type TWR Name TWR Frequency 118.75 MHZ

 AIRPORT NEAR NAVIGATION AIDS
Type VOR-DME Name Gorgan Frequency 117600 KHZ
Type NDB Name Gorgan Frequency 310 KHZ



Copyright @ Zagros Virtual Airline